^^
Datos históricos de la estación: Murcia-Puente Tocinos
Diario Informe para Octubre 4, 2021 Unidades:  Métrico    Ingés   Ambas
Diario Semanal Mensual Anual
  Máxima: Mínima: Promedio:
Temperatura: 23.7 °C 17.1 °C 19.3 °C
Punto de rocio: 15.6 °C 3.6 °C 8.8 °C
Humedad: 90% 29.4% 54%
Velocidad viento: 21.7km/h 4.7km/h 11.9km/h
Racha viento: 42.6km/h - -
Viento- - OSO
Presión: 1018.9 hPa 1012.5 hPa -
Precipitación: 1.0 mm    
 
 
Tabla de datos para Octubre 4, 2021
Hora Temperatura Punto de rocio Presión Viento Velocidad viento Racha viento Humedad Intensidad lluvia(por hora) Nubes
00:04 17.3 °C 15.5 °C 1012.6 hPa Sur 6.9 km/h 15.6 km/h 89.2% 2.0 mm
00:09 17.2 °C 15.4 °C 1013.0 hPa SSE 8 km/h 17.2 km/h 89% 2.0 mm
00:14 17.3 °C 15.4 °C 1013.0 hPa SSE 10 km/h 17.2 km/h 89% 2.1 mm
00:19 17.2 °C 15.4 °C 1013.0 hPa SSO 10.1 km/h 14.8 km/h 89% 2.1 mm
00:24 17.2 °C 15.5 °C 1013.0 hPa SO 10.3 km/h 14.8 km/h 89.4% 2.1 mm
00:29 17.2 °C 15.6 °C 1012.5 hPa SO 9.5 km/h 13.7 km/h 90% 2.1 mm
00:34 17.2 °C 15.5 °C 1012.5 hPa Sur 8.4 km/h 13.7 km/h 89.7% 2.1 mm
00:39 17.2 °C 15.4 °C 1013.1 hPa Sur 8.6 km/h 16.7 km/h 89% 1.6 mm
00:44 17.2 °C 15.4 °C 1013.1 hPa SSO 9.5 km/h 13.7 km/h 89% 1.6 mm
00:49 17.2 °C 15.4 °C 1013.1 hPa SO 8.8 km/h 12.2 km/h 89% 1.3 mm
00:54 17.2 °C 15.2 °C 1013.1 hPa SO 7.6 km/h 13 km/h 88.2% 1.1 mm
00:59 17.2 °C 15.2 °C 1012.8 hPa SO 7.3 km/h 13.7 km/h 88% 0.8 mm
01:04 17.2 °C 15.1 °C 1012.8 hPa SO 6.9 km/h 13 km/h 87.6% 0.8 mm
01:09 17.3 °C 15.1 °C 1012.8 hPa OSO 6.9 km/h 11.1 km/h 87% 0.6 mm
01:14 17.3 °C 15.1 °C 1012.7 hPa SO 6.9 km/h 8.4 km/h 87% 0.3 mm
01:19 17.3 °C 15.1 °C 1012.7 hPa SO 6.1 km/h 7.6 km/h 87% 0.0 mm
01:24 17.4 °C 15.2 °C 1012.7 hPa SSO 4.7 km/h 11.9 km/h 87% 0.0 mm
01:29 17.4 °C 15.2 °C 1012.7 hPa SSO 5.4 km/h 14.8 km/h 87% 0.0 mm
01:34 17.5 °C 15.2 °C 1012.7 hPa SSO 6.9 km/h 13 km/h 86.4% 0.0 mm
01:39 17.5 °C 15.1 °C 1012.7 hPa SSO 7.2 km/h 11.1 km/h 86% 0.0 mm
01:44 17.6 °C 15.2 °C 1012.7 hPa SSO 7.6 km/h 11.1 km/h 86% 0.0 mm
01:49 17.6 °C 15.2 °C 1012.7 hPa SO 7.6 km/h 13.7 km/h 86% 0.0 mm
01:54 17.6 °C 15.2 °C 1012.8 hPa SSO 7.6 km/h 20.4 km/h 86% 0.0 mm
01:59 17.6 °C 15.2 °C 1012.8 hPa SO 8.6 km/h 15.6 km/h 86% 0.0 mm
02:04 17.6 °C 15.3 °C 1012.8 hPa SO 10 km/h 19 km/h 86% 0.0 mm
02:09 17.7 °C 15.2 °C 1012.8 hPa SO 10.4 km/h 19 km/h 85.4% 0.0 mm
02:14 17.9 °C 15.2 °C 1012.8 hPa SO 11.1 km/h 20.4 km/h 84.1% 0.0 mm
02:19 18.1 °C 15.1 °C 1012.8 hPa SO 11.8 km/h 20.4 km/h 82.7% 0.0 mm
02:24 18.2 °C 15 °C 1013.0 hPa SO 13 km/h 18.5 km/h 81.9% 0.0 mm
02:29 18.2 °C 14.9 °C 1013.0 hPa SO 12.8 km/h 20.1 km/h 81% 0.0 mm
02:34 18.2 °C 14.9 °C 1013.0 hPa SO 11.9 km/h 20.4 km/h 81% 0.0 mm
02:39 18.2 °C 14.9 °C 1013.2 hPa SSO 11.8 km/h 16.7 km/h 81% 0.0 mm
02:44 18.2 °C 14.7 °C 1013.2 hPa SO 10 km/h 14.8 km/h 80.2% 0.0 mm
02:49 18.3 °C 14.6 °C 1013.2 hPa SSO 10 km/h 18.5 km/h 79.1% 0.0 mm
02:54 18.3 °C 14.6 °C 1013.4 hPa SSO 10.2 km/h 14.8 km/h 79% 0.0 mm
02:59 18.4 °C 14.5 °C 1013.4 hPa SSO 10.3 km/h 13 km/h 78.2% 0.0 mm
03:04 18.3 °C 14.4 °C 1013.4 hPa SSO 10.3 km/h 14.8 km/h 78% 0.0 mm
03:09 18.2 °C 14.3 °C 1013.6 hPa SSO 10.3 km/h 15.6 km/h 77.9% 0.0 mm
03:14 18.2 °C 14.1 °C 1013.6 hPa SSO 9.7 km/h 13 km/h 77% 0.0 mm
03:19 18.2 °C 14.1 °C 1013.6 hPa SSO 9.5 km/h 11.1 km/h 77% 0.0 mm
03:24 18.2 °C 13.9 °C 1013.9 hPa SSO 8.9 km/h 13 km/h 76.2% 0.0 mm
03:29 18.2 °C 13.8 °C 1013.9 hPa SO 8.7 km/h 11.9 km/h 75.7% 0.0 mm
03:34 18.2 °C 13.7 °C 1013.9 hPa SSO 8.7 km/h 9.5 km/h 75% 0.0 mm
03:39 18.3 °C 13.5 °C 1013.9 hPa SO 8.7 km/h 14.8 km/h 73.7% 0.0 mm
03:44 18.4 °C 13.2 °C 1013.9 hPa SSO 8.8 km/h 16.7 km/h 71.8% 0.0 mm
03:49 18.4 °C 13.1 °C 1013.9 hPa SSO 9.5 km/h 13.7 km/h 71% 0.0 mm
03:54 18.3 °C 13 °C 1014.0 hPa SO 9.6 km/h 15.6 km/h 71% 0.0 mm
03:59 18.3 °C 12.9 °C 1014.0 hPa SO 10 km/h 13 km/h 71% 0.0 mm
04:04 18.2 °C 12.8 °C 1014.0 hPa SO 10 km/h 13 km/h 71% 0.0 mm
04:09 18.2 °C 12.7 °C 1014.2 hPa SO 10 km/h 14 km/h 70.6% 0.0 mm
04:14 18.2 °C 12.6 °C 1014.2 hPa SSO 9.3 km/h 14.8 km/h 70% 0.0 mm
04:19 18.2 °C 12.5 °C 1014.2 hPa SSO 9 km/h 13.7 km/h 69.6% 0.0 mm
04:24 18.2 °C 12.2 °C 1014.2 hPa SSO 10 km/h 13 km/h 68.3% 0.0 mm
04:29 18.2 °C 12.1 °C 1014.2 hPa SO 9.9 km/h 13 km/h 67.9% 0.0 mm
04:34 18.2 °C 12 °C 1014.2 hPa SO 8.7 km/h 14 km/h 67% 0.0 mm
04:39 18.2 °C 11.9 °C 1014.3 hPa SO 8.6 km/h 14.8 km/h 67% 0.0 mm
04:44 18.2 °C 11.9 °C 1014.3 hPa OSO 8.4 km/h 14 km/h 67% 0.0 mm
04:49 18.1 °C 11.9 °C 1014.3 hPa SO 8.4 km/h 14.8 km/h 67.2% 0.0 mm
04:54 18 °C 11.9 °C 1014.4 hPa OSO 8.4 km/h 14.8 km/h 67.7% 0.0 mm
04:59 17.9 °C 11.6 °C 1014.4 hPa Oeste 8.5 km/h 20.4 km/h 66.7% 0.0 mm
05:04 17.9 °C 11.1 °C 1014.4 hPa Oeste 8.7 km/h 22.2 km/h 64.6% 0.0 mm
05:09 18.2 °C 10.8 °C 1014.4 hPa Oeste 10.7 km/h 24.1 km/h 62.3% 0.0 mm
05:14 18.3 °C 10.7 °C 1014.4 hPa Oeste 14 km/h 20.9 km/h 61% 0.0 mm
05:19 18.4 °C 10.6 °C 1014.4 hPa Oeste 13.9 km/h 19 km/h 60.3% 0.0 mm
05:24 18.4 °C 10.6 °C 1014.6 hPa Oeste 13.7 km/h 15.6 km/h 60.4% 0.0 mm
05:29 18.3 °C 10.7 °C 1014.6 hPa Oeste 12.1 km/h 14.8 km/h 61.2% 0.0 mm
05:34 18.2 °C 10.8 °C 1014.6 hPa Oeste 9.5 km/h 13 km/h 62% 0.0 mm
05:39 18 °C 10.9 °C 1014.6 hPa OSO 8.8 km/h 12.2 km/h 63% 0.0 mm
05:44 17.8 °C 10.9 °C 1014.6 hPa Oeste 7.6 km/h 13 km/h 63.6% 0.0 mm
05:49 17.7 °C 11 °C 1014.6 hPa Oeste 7.3 km/h 11.1 km/h 64.7% 0.0 mm
05:54 17.6 °C 11.1 °C 1014.8 hPa Oeste 6.9 km/h 10 km/h 65.4% 0.0 mm
05:59 17.5 °C 11.1 °C 1014.8 hPa OSO 6.5 km/h 11.9 km/h 66% 0.0 mm
06:04 17.4 °C 11.1 °C 1014.8 hPa OSO 5.8 km/h 11.1 km/h 66.6% 0.0 mm
06:09 17.3 °C 11.1 °C 1015.1 hPa OSO 6 km/h 22.2 km/h 66.7% 0.0 mm
06:14 17.3 °C 11.1 °C 1015.1 hPa OSO 6.4 km/h 11.9 km/h 66.9% 0.0 mm
06:19 17.3 °C 11.1 °C 1015.1 hPa OSO 6.6 km/h 9.3 km/h 66.8% 0.0 mm
06:24 17.3 °C 11.1 °C 1015.1 hPa OSO 6.9 km/h 7.6 km/h 67% 0.0 mm
06:29 17.2 °C 11 °C 1015.1 hPa OSO 6.1 km/h 9.5 km/h 67% 0.0 mm
06:34 17.2 °C 11 °C 1015.1 hPa OSO 4.7 km/h 11.1 km/h 67% 0.0 mm
06:39 17.2 °C 10.8 °C 1015.3 hPa SO 5.3 km/h 11.9 km/h 66.2% 0.0 mm
06:44 17.2 °C 10.5 °C 1015.3 hPa SO 6.4 km/h 14.8 km/h 64.7% 0.0 mm
06:49 17.3 °C 10.2 °C 1015.3 hPa OSO 7.3 km/h 13.7 km/h 63.2% 0.0 mm
06:54 17.4 °C 10 °C 1015.5 hPa SO 8.7 km/h 17.2 km/h 61.9% 0.0 mm
06:59 17.4 °C 9.8 °C 1015.5 hPa SO 9.2 km/h 18.5 km/h 61% 0.0 mm
07:04 17.4 °C 9.6 °C 1015.5 hPa OSO 10 km/h 18.5 km/h 60.4% 0.0 mm
07:09 17.3 °C 9.5 °C 1015.8 hPa OSO 10 km/h 14.8 km/h 60% 0.0 mm
07:14 17.3 °C 9.3 °C 1015.8 hPa OSO 10 km/h 16.7 km/h 59.3% 0.0 mm
07:19 17.3 °C 9.2 °C 1015.8 hPa Oeste 9.1 km/h 13 km/h 59% 0.0 mm
07:24 17.2 °C 9.3 °C 1015.9 hPa SO 7.6 km/h 9.3 km/h 59.7% 0.0 mm
07:29 17.2 °C 9.2 °C 1015.9 hPa SO 6.9 km/h 10 km/h 59.4% 0.0 mm
07:34 17.1 °C 9 °C 1015.9 hPa SO 5.8 km/h 9.3 km/h 59% 0.0 mm
07:39 17.2 °C 8.9 °C 1016.1 hPa SO 5.8 km/h 11.1 km/h 58.2% 0.0 mm
07:44 17.2 °C 8.7 °C 1016.1 hPa SO 5.8 km/h 11.1 km/h 57.1% 0.0 mm
07:49 17.3 °C 8.7 °C 1016.1 hPa OSO 6.2 km/h 10 km/h 57% 0.0 mm
07:54 17.2 °C 8.6 °C 1016.1 hPa OSO 6.9 km/h 11.1 km/h 57% 0.0 mm
07:59 17.2 °C 8.6 °C 1015.9 hPa SO 7.2 km/h 13 km/h 57.1% 0.0 mm
08:04 17.1 °C 8.4 °C 1015.9 hPa SO 7.6 km/h 18.5 km/h 56.6% 0.0 mm
08:09 17.1 °C 8.2 °C 1016.0 hPa SO 8.3 km/h 13.7 km/h 56% 0.0 mm
08:14 17.2 °C 8.2 °C 1016.0 hPa SO 10 km/h 11.9 km/h 55.6% 0.0 mm
08:19 17.2 °C 8.1 °C 1016.0 hPa SSO 8.8 km/h 13.7 km/h 55% 0.0 mm
08:24 17.3 °C 8 °C 1016.4 hPa SSO 6.9 km/h 16.7 km/h 54.5% 0.0 mm
08:29 17.3 °C 7.7 °C 1016.4 hPa SSO 8.5 km/h 20.4 km/h 53.1% 0.0 mm
08:34 17.4 °C 7.4 °C 1016.4 hPa SO 11.1 km/h 17.2 km/h 51.7% 0.0 mm
08:39 17.6 °C 7.1 °C 1016.5 hPa SO 10.8 km/h 20.4 km/h 50.3% 0.0 mm
08:44 17.7 °C 7.1 °C 1016.5 hPa SO 10.3 km/h 14.8 km/h 49.9% 0.0 mm
08:49 17.7 °C 6.8 °C 1016.5 hPa OSO 10.2 km/h 19 km/h 48.8% 0.0 mm
08:54 17.8 °C 6.6 °C 1016.8 hPa OSO 10 km/h 20.9 km/h 47.8% 0.0 mm
08:59 17.9 °C 6.7 °C 1016.8 hPa OSO 10.8 km/h 16.1 km/h 47.9% 0.0 mm
09:04 17.9 °C 6.5 °C 1016.8 hPa SO 11.9 km/h 19 km/h 47% 0.0 mm
09:09 18.1 °C 6.6 °C 1017.1 hPa OSO 11.6 km/h 19.8 km/h 47% 0.0 mm
09:14 18.1 °C 6.4 °C 1017.1 hPa OSO 11.1 km/h 24.1 km/h 46.3% 0.2 mm
09:19 18.1 °C 6.6 °C 1017.1 hPa Oeste 11.5 km/h 22.2 km/h 47% 0.2 mm
09:24 17.9 °C 6.5 °C 1017.3 hPa Oeste 12.2 km/h 30.6 km/h 47% 0.2 mm
09:29 18 °C 6.4 °C 1017.3 hPa Oeste 12.8 km/h 24.1 km/h 46.9% 0.2 mm
09:34 18 °C 6.5 °C 1017.3 hPa Oeste 13.7 km/h 25.9 km/h 46.7% 0.2 mm
09:39 18.1 °C 6.3 °C 1017.3 hPa Oeste 13.4 km/h 24.5 km/h 46.1% 0.2 mm
09:44 18.1 °C 6.5 °C 1017.2 hPa Oeste 13 km/h 22.2 km/h 46.8% 0.2 mm
09:49 18 °C 7 °C 1017.2 hPa OSO 12 km/h 19.8 km/h 48.7% 0.2 mm
09:54 17.9 °C 7.3 °C 1017.7 hPa OSO 10.3 km/h 22 km/h 49.8% 0.2 mm
09:59 17.9 °C 7.2 °C 1017.7 hPa OSO 11 km/h 28.2 km/h 49.5% 0.2 mm
10:04 17.9 °C 7.2 °C 1017.7 hPa OSO 11.9 km/h 19 km/h 49.5% 0.2 mm
10:09 17.9 °C 7 °C 1018.0 hPa Oeste 12.3 km/h 25.9 km/h 49% 0.2 mm
10:14 18.1 °C 7 °C 1018.0 hPa Oeste 13 km/h 25.6 km/h 48.3% 0.2 mm
10:19 18.1 °C 6.7 °C 1018.0 hPa Oeste 14.7 km/h 28.2 km/h 47.1% 0.0 mm
10:24 18.2 °C 6.7 °C 1018.1 hPa ONO 17.2 km/h 27.8 km/h 46.9% 0.0 mm
10:29 18.3 °C 6.6 °C 1018.1 hPa Oeste 15.6 km/h 19 km/h 46.3% 0.0 mm
10:34 18.5 °C 6.2 °C 1018.1 hPa Oeste 13 km/h 22.5 km/h 44.5% 0.0 mm
10:39 18.8 °C 5.8 °C 1018.1 hPa Oeste 12.6 km/h 27.8 km/h 42.6% 0.0 mm
10:44 19 °C 5.5 °C 1018.1 hPa Oeste 11.9 km/h 20.4 km/h 41.2% 0.0 mm
10:49 19.2 °C 5.2 °C 1018.1 hPa Oeste 12.3 km/h 23.7 km/h 39.9% 0.0 mm
10:54 19.3 °C 4.9 °C 1018.3 hPa Oeste 13 km/h 25.6 km/h 38.6% 0.0 mm
10:59 19.4 °C 4.7 °C 1018.3 hPa ONO 13.7 km/h 28.6 km/h 38.1% 0.0 mm
11:04 19.3 °C 4.7 °C 1018.3 hPa Oeste 14.8 km/h 29.6 km/h 38.1% 0.0 mm
11:09 19.4 °C 4.6 °C 1018.3 hPa OSO 15.4 km/h 34.6 km/h 37.9% 0.0 mm
11:14 19.4 °C 4.5 °C 1018.3 hPa Oeste 16.4 km/h 35.2 km/h 37.3% 0.0 mm
11:19 19.3 °C 4.5 °C 1018.3 hPa Oeste 17.4 km/h 33.5 km/h 37.6% 0.0 mm
11:24 19.4 °C 4.7 °C 1018.7 hPa Oeste 19 km/h 30.9 km/h 38% 0.0 mm
11:29 19.7 °C 4.7 °C 1018.7 hPa Oeste 18.6 km/h 38.9 km/h 37.3% 0.0 mm
11:34 19.7 °C 4.4 °C 1018.7 hPa Oeste 18 km/h 42.6 km/h 36.4% 0.0 mm
11:39 19.7 °C 4.3 °C 1018.9 hPa Oeste 19.5 km/h 37 km/h 36.4% 0.0 mm
11:44 19.5 °C 4 °C 1018.9 hPa Oeste 21.7 km/h 33.3 km/h 36.1% 0.0 mm
11:49 19.5 °C 4.1 °C 1018.9 hPa OSO 20.1 km/h 25.9 km/h 36.2% 0.0 mm
11:54 19.7 °C 4 °C 1018.9 hPa Oeste 17.2 km/h 25.9 km/h 35.5% 0.0 mm
11:59 19.7 °C 4.2 °C 1018.8 hPa Oeste 15.9 km/h 25.1 km/h 36% 0.0 mm
12:04 19.8 °C 4.1 °C 1018.8 hPa Oeste 14 km/h 27.8 km/h 35.6% 0.0 mm
12:09 19.9 °C 3.6 °C 1018.9 hPa Oeste 14.9 km/h 27.8 km/h 34.1% 0.0 mm
12:14 20.2 °C 4.1 °C 1018.9 hPa Oeste 16.4 km/h 31.7 km/h 34.5% 0.0 mm
12:19 20.4 °C 3.9 °C 1018.9 hPa Oeste 15.8 km/h 29.8 km/h 33.7% 0.0 mm
12:24 20.6 °C 4.4 °C 1018.9 hPa Oeste 14.8 km/h 25.6 km/h 34.7% 0.0 mm
12:29 20.7 °C 4.6 °C 1018.5 hPa ONO 14.5 km/h 25.9 km/h 34.8% 0.0 mm
12:34 20.7 °C 4.3 °C 1018.5 hPa ONO 14 km/h 29.6 km/h 34% 0.0 mm
12:39 20.8 °C 4.3 °C 1018.5 hPa ONO 14.8 km/h 29.6 km/h 33.9% 0.0 mm
12:44 20.8 °C 4.2 °C 1018.4 hPa ONO 16.1 km/h 29.6 km/h 33.5% 0.0 mm
12:49 20.7 °C 4.2 °C 1018.4 hPa ONO 16.2 km/h 33.3 km/h 33.7% 0.0 mm
12:54 20.8 °C 4.4 °C 1018.4 hPa ONO 16.4 km/h 25.9 km/h 34% 0.0 mm
12:59 20.8 °C 4.6 °C 1018.4 hPa Oeste 15.7 km/h 26.2 km/h 34.5% 0.0 mm
13:04 20.9 °C 4.4 °C 1018.4 hPa Oeste 14.8 km/h 31.5 km/h 33.9% 0.0 mm
13:09 21 °C 4.2 °C 1018.4 hPa ONO 15.4 km/h 27.8 km/h 33.3% 0.0 mm
13:14 21.2 °C 4.4 °C 1018.4 hPa Oeste 16.4 km/h 29.6 km/h 33.3% 0.0 mm
13:19 21.2 °C 4.3 °C 1018.4 hPa Oeste 15.8 km/h 25.6 km/h 33% 0.0 mm
13:24 21.3 °C 4.3 °C 1018.6 hPa Oeste 14.8 km/h 33.5 km/h 32.8% 0.0 mm
13:29 21.3 °C 4 °C 1018.6 hPa ONO 16.4 km/h 33.3 km/h 32.1% 0.0 mm
13:34 21.3 °C 4.6 °C 1018.6 hPa ONO 19 km/h 25.1 km/h 33.4% 0.0 mm
13:39 21.6 °C 4.6 °C 1018.6 hPa Oeste 18.3 km/h 33.5 km/h 33% 0.0 mm
13:44 21.6 °C 4.4 °C 1018.3 hPa ONO 17.2 km/h 37 km/h 32.5% 0.0 mm
13:49 21.6 °C 4.6 °C 1018.3 hPa ONO 17.7 km/h 33.3 km/h 33% 0.0 mm
13:54 21.8 °C 5 °C 1018.3 hPa Oeste 18.3 km/h 29.6 km/h 33.3% 0.0 mm
13:59 21.9 °C 4.8 °C 1018.0 hPa ONO 17.4 km/h 33.5 km/h 32.9% 0.0 mm
14:04 21.8 °C 5 °C 1018.0 hPa Oeste 16.1 km/h 33.3 km/h 33.3% 0.0 mm
14:09 22.1 °C 4.7 °C 1018.0 hPa ONO 16.2 km/h 35.9 km/h 32.2% 0.0 mm
14:14 22.1 °C 4.7 °C 1017.9 hPa Oeste 16.4 km/h 29.6 km/h 32.3% 0.0 mm
14:19 22.1 °C 4.9 °C 1017.9 hPa Oeste 17.2 km/h 29.6 km/h 32.7% 0.0 mm
14:24 22.2 °C 5.1 °C 1017.9 hPa Oeste 18.3 km/h 27.8 km/h 32.9% 0.0 mm
14:29 22.4 °C 5.3 °C 1017.8 hPa Oeste 16.7 km/h 26.2 km/h 32.9% 0.0 mm
14:34 22.4 °C 5.1 °C 1017.8 hPa Oeste 14 km/h 26.2 km/h 32.4% 0.0 mm
14:39 22.4 °C 5.1 °C 1017.8 hPa Oeste 14 km/h 25.9 km/h 32.3% 0.0 mm
14:44 22.4 °C 5 °C 1017.8 hPa Oeste 14 km/h 29.6 km/h 32.3% 0.0 mm
14:49 22.6 °C 5.1 °C 1017.8 hPa ONO 14.6 km/h 25.9 km/h 32.1% 0.0 mm
14:54 22.7 °C 5.2 °C 1017.8 hPa Oeste 15.6 km/h 22.2 km/h 32.1% 0.0 mm
14:59 22.8 °C 5.3 °C 1017.6 hPa Oeste 14.8 km/h 20.9 km/h 32% 0.0 mm
15:04 23 °C 5.2 °C 1017.6 hPa Oeste 13.7 km/h 18.5 km/h 31.5% 0.0 mm
15:09 23.2 °C 4.9 °C 1017.6 hPa ONO 13 km/h 22.5 km/h 30.5% 0.0 mm
15:14 23.2 °C 5.3 °C 1017.4 hPa Oeste 11.9 km/h 22.2 km/h 31.3% 0.0 mm
15:19 23.3 °C 5.4 °C 1017.4 hPa ONO 11.9 km/h 23.7 km/h 31.4% 0.0 mm
15:24 23.3 °C 5.2 °C 1017.4 hPa Oeste 11.9 km/h 28.2 km/h 30.8% 0.0 mm
15:29 23.3 °C 5.2 °C 1017.1 hPa NO 13.5 km/h 22.2 km/h 31% 0.0 mm
15:34 23.4 °C 5.2 °C 1017.1 hPa OSO 16.1 km/h 25.9 km/h 30.9% 0.0 mm
15:39 23.4 °C 5 °C 1017.1 hPa Oeste 15.2 km/h 29.6 km/h 30.5% 0.0 mm
15:44 23.3 °C 5.1 °C 1017.1 hPa Oeste 13.7 km/h 18.5 km/h 30.8% 0.0 mm
15:49 23.6 °C 5.2 °C 1017.1 hPa ONO 13.7 km/h 26.2 km/h 30.5% 0.0 mm
15:54 23.4 °C 5.2 °C 1017.1 hPa Oeste 13.7 km/h 23.3 km/h 30.8% 0.0 mm
15:59 23.4 °C 5.2 °C 1017.0 hPa Oeste 13.7 km/h 28.2 km/h 30.7% 0.0 mm
16:04 23.4 °C 5.1 °C 1017.0 hPa Oeste 13.7 km/h 22.2 km/h 30.6% 0.0 mm
16:09 23.6 °C 5 °C 1017.0 hPa Oeste 13.7 km/h 26.2 km/h 30% 0.0 mm
16:14 23.7 °C 4.7 °C 1017.0 hPa Oeste 13.7 km/h 37 km/h 29.4% 0.0 mm
16:19 23.4 °C 4.9 °C 1017.0 hPa ONO 15.5 km/h 37 km/h 30.1% 0.0 mm
16:24 23.3 °C 4.7 °C 1017.0 hPa ONO 19 km/h 31.5 km/h 30% 0.0 mm
16:29 23.3 °C 4.7 °C 1016.9 hPa ONO 18.8 km/h 29.6 km/h 30% 0.0 mm
16:34 23.2 °C 4.7 °C 1016.9 hPa ONO 18.3 km/h 35.2 km/h 30.1% 0.0 mm
16:39 23.2 °C 5 °C 1017.0 hPa ONO 18.6 km/h 35.2 km/h 30.9% 0.0 mm
16:44 23.5 °C 5.4 °C 1017.0 hPa ONO 19 km/h 30.9 km/h 31% 0.0 mm
16:49 23.7 °C 5.6 °C 1017.0 hPa ONO 17.7 km/h 31.5 km/h 31% 0.0 mm
16:54 23.7 °C 5.5 °C 1017.0 hPa ONO 15.6 km/h 31.7 km/h 30.9% 0.0 mm
16:59 23.5 °C 5.6 °C 1016.8 hPa ONO 15.9 km/h 24.1 km/h 31.4% 0.0 mm
17:04 23.4 °C 5.7 °C 1016.8 hPa ONO 16.4 km/h 29.8 km/h 31.8% 0.0 mm
17:09 23.3 °C 5.5 °C 1016.8 hPa ONO 16.3 km/h 27.8 km/h 31.6% 0.0 mm
17:14 23.3 °C 5.4 °C 1016.7 hPa Oeste 16.1 km/h 24.1 km/h 31.5% 0.0 mm
17:19 23.3 °C 5.3 °C 1016.7 hPa NO 15.9 km/h 29.6 km/h 31.2% 0.0 mm
17:24 23.3 °C 5.8 °C 1016.7 hPa NNO 15.6 km/h 24.1 km/h 32.2% 0.0 mm
17:29 23.5 °C 5.9 °C 1016.5 hPa NO 14.9 km/h 25.6 km/h 32.1% 0.0 mm
17:34 23.6 °C 5.6 °C 1016.5 hPa NO 13.7 km/h 25.9 km/h 31.2% 0.0 mm
Murcia-Puente Tocinos, Espa?a
Compliments of Weather Underground - 2.75 mb

La estación de MeteoMurcia.com, publica sus datos en los siguientes proyectos:

Weather Underground PWS IMURCIAP2 Meteoclimatic www.awekas.at

W3Counter
Web Analytics